sensor_id;sensor_type;location;lat;lon;timestamp;temperature;humidity
56478;DHT22;42382;53.210;5.772;2022-11-12T00:00:06;8.30;92.80
56478;DHT22;42382;53.210;5.772;2022-11-12T00:02:31;8.30;92.80
56478;DHT22;42382;53.210;5.772;2022-11-12T00:04:57;8.30;93.00
56478;DHT22;42382;53.210;5.772;2022-11-12T00:07:22;8.30;92.70
56478;DHT22;42382;53.210;5.772;2022-11-12T00:09:48;8.30;92.80
56478;DHT22;42382;53.210;5.772;2022-11-12T00:12:13;8.30;92.80
56478;DHT22;42382;53.210;5.772;2022-11-12T00:14:39;8.20;92.80
56478;DHT22;42382;53.210;5.772;2022-11-12T00:17:04;8.20;92.70
56478;DHT22;42382;53.210;5.772;2022-11-12T00:19:29;8.20;92.80
56478;DHT22;42382;53.210;5.772;2022-11-12T00:21:55;8.20;92.80
56478;DHT22;42382;53.210;5.772;2022-11-12T00:24:20;8.10;92.70
56478;DHT22;42382;53.210;5.772;2022-11-12T00:26:46;8.10;92.70
56478;DHT22;42382;53.210;5.772;2022-11-12T00:29:11;8.10;92.70
56478;DHT22;42382;53.210;5.772;2022-11-12T00:31:37;8.10;92.60
56478;DHT22;42382;53.210;5.772;2022-11-12T00:34:02;8.10;92.60
56478;DHT22;42382;53.210;5.772;2022-11-12T00:36:28;8.00;92.60
56478;DHT22;42382;53.210;5.772;2022-11-12T00:38:54;8.00;92.70
56478;DHT22;42382;53.210;5.772;2022-11-12T00:41:19;8.00;92.60
56478;DHT22;42382;53.210;5.772;2022-11-12T00:43:44;8.00;92.60
56478;DHT22;42382;53.210;5.772;2022-11-12T00:46:10;7.90;92.60
56478;DHT22;42382;53.210;5.772;2022-11-12T00:48:36;7.90;92.60
56478;DHT22;42382;53.210;5.772;2022-11-12T00:51:03;7.90;92.60
56478;DHT22;42382;53.210;5.772;2022-11-12T00:53:29;7.90;92.60
56478;DHT22;42382;53.210;5.772;2022-11-12T00:55:58;7.80;92.60
56478;DHT22;42382;53.210;5.772;2022-11-12T00:58:24;7.80;92.60
56478;DHT22;42382;53.210;5.772;2022-11-12T01:00:50;7.80;92.60
56478;DHT22;42382;53.210;5.772;2022-11-12T01:03:15;7.80;92.60
56478;DHT22;42382;53.210;5.772;2022-11-12T01:05:40;7.70;92.60
56478;DHT22;42382;53.210;5.772;2022-11-12T01:08:06;7.70;92.70
56478;DHT22;42382;53.210;5.772;2022-11-12T01:10:33;7.80;92.70
56478;DHT22;42382;53.210;5.772;2022-11-12T01:12:59;7.80;92.80
56478;DHT22;42382;53.210;5.772;2022-11-12T01:15:24;7.80;92.70
56478;DHT22;42382;53.210;5.772;2022-11-12T01:17:50;7.80;92.70
56478;DHT22;42382;53.210;5.772;2022-11-12T01:20:15;7.80;92.80
56478;DHT22;42382;53.210;5.772;2022-11-12T01:22:41;7.80;92.80
56478;DHT22;42382;53.210;5.772;2022-11-12T01:25:06;7.70;92.90
56478;DHT22;42382;53.210;5.772;2022-11-12T01:27:32;7.80;92.90
56478;DHT22;42382;53.210;5.772;2022-11-12T01:29:58;7.80;92.90
56478;DHT22;42382;53.210;5.772;2022-11-12T01:32:24;7.70;92.90
56478;DHT22;42382;53.210;5.772;2022-11-12T01:34:50;7.80;92.90
56478;DHT22;42382;53.210;5.772;2022-11-12T01:37:15;7.70;92.90
56478;DHT22;42382;53.210;5.772;2022-11-12T01:39:41;7.70;92.90
56478;DHT22;42382;53.210;5.772;2022-11-12T01:42:06;7.70;92.90
56478;DHT22;42382;53.210;5.772;2022-11-12T01:44:34;7.70;92.90
56478;DHT22;42382;53.210;5.772;2022-11-12T01:47:43;7.70;92.90
56478;DHT22;42382;53.210;5.772;2022-11-12T01:50:27;7.70;93.00
56478;DHT22;42382;53.210;5.772;2022-11-12T01:52:58;7.70;93.00
56478;DHT22;42382;53.210;5.772;2022-11-12T01:55:28;7.60;92.90
56478;DHT22;42382;53.210;5.772;2022-11-12T01:58:03;7.70;93.00
56478;DHT22;42382;53.210;5.772;2022-11-12T02:00:29;7.60;92.90
56478;DHT22;42382;53.210;5.772;2022-11-12T02:02:58;7.60;92.90
56478;DHT22;42382;53.210;5.772;2022-11-12T02:05:26;7.70;93.00
56478;DHT22;42382;53.210;5.772;2022-11-12T02:07:52;7.70;93.10
56478;DHT22;42382;53.210;5.772;2022-11-12T02:10:20;7.80;93.20
56478;DHT22;42382;53.210;5.772;2022-11-12T02:12:47;7.90;93.40
56478;DHT22;42382;53.210;5.772;2022-11-12T02:15:33;7.90;93.40
56478;DHT22;42382;53.210;5.772;2022-11-12T02:17:59;8.00;93.50
56478;DHT22;42382;53.210;5.772;2022-11-12T02:20:24;8.10;93.60
56478;DHT22;42382;53.210;5.772;2022-11-12T02:22:50;8.10;93.70
56478;DHT22;42382;53.210;5.772;2022-11-12T02:25:21;8.20;93.70
56478;DHT22;42382;53.210;5.772;2022-11-12T02:27:50;8.30;93.80
56478;DHT22;42382;53.210;5.772;2022-11-12T02:30:18;8.30;93.90
56478;DHT22;42382;53.210;5.772;2022-11-12T02:32:43;8.40;93.90
56478;DHT22;42382;53.210;5.772;2022-11-12T02:35:09;8.30;93.90
56478;DHT22;42382;53.210;5.772;2022-11-12T02:37:34;8.40;93.90
56478;DHT22;42382;53.210;5.772;2022-11-12T02:40:00;8.40;93.90
56478;DHT22;42382;53.210;5.772;2022-11-12T02:42:25;8.50;94.10
56478;DHT22;42382;53.210;5.772;2022-11-12T02:44:51;8.50;94.00
56478;DHT22;42382;53.210;5.772;2022-11-12T02:47:17;8.40;93.90
56478;DHT22;42382;53.210;5.772;2022-11-12T02:49:42;8.40;94.00
56478;DHT22;42382;53.210;5.772;2022-11-12T02:52:09;8.40;94.00
56478;DHT22;42382;53.210;5.772;2022-11-12T02:54:35;8.50;94.10
56478;DHT22;42382;53.210;5.772;2022-11-12T02:57:01;8.40;94.00
56478;DHT22;42382;53.210;5.772;2022-11-12T02:59:26;8.40;94.00
56478;DHT22;42382;53.210;5.772;2022-11-12T03:01:52;8.40;94.10
56478;DHT22;42382;53.210;5.772;2022-11-12T03:04:17;8.40;94.00
56478;DHT22;42382;53.210;5.772;2022-11-12T03:06:43;8.40;94.00
56478;DHT22;42382;53.210;5.772;2022-11-12T03:09:10;8.40;94.00
56478;DHT22;42382;53.210;5.772;2022-11-12T03:11:36;8.50;94.00
56478;DHT22;42382;53.210;5.772;2022-11-12T03:14:02;8.40;94.00
56478;DHT22;42382;53.210;5.772;2022-11-12T03:16:28;8.40;94.00
56478;DHT22;42382;53.210;5.772;2022-11-12T03:18:54;8.40;94.00
56478;DHT22;42382;53.210;5.772;2022-11-12T03:21:19;8.50;94.00
56478;DHT22;42382;53.210;5.772;2022-11-12T03:23:45;8.40;93.90
56478;DHT22;42382;53.210;5.772;2022-11-12T03:26:11;8.40;93.90
56478;DHT22;42382;53.210;5.772;2022-11-12T03:28:36;8.40;94.00
56478;DHT22;42382;53.210;5.772;2022-11-12T03:31:02;8.40;93.90
56478;DHT22;42382;53.210;5.772;2022-11-12T03:33:27;8.50;94.00
56478;DHT22;42382;53.210;5.772;2022-11-12T03:35:54;8.40;94.00
56478;DHT22;42382;53.210;5.772;2022-11-12T03:38:20;8.40;93.90
56478;DHT22;42382;53.210;5.772;2022-11-12T03:40:45;8.40;93.90
56478;DHT22;42382;53.210;5.772;2022-11-12T03:43:11;8.40;93.90
56478;DHT22;42382;53.210;5.772;2022-11-12T03:45:36;8.40;93.90
56478;DHT22;42382;53.210;5.772;2022-11-12T03:48:02;8.40;93.80
56478;DHT22;42382;53.210;5.772;2022-11-12T03:50:28;8.40;93.80
56478;DHT22;42382;53.210;5.772;2022-11-12T03:52:58;8.30;93.80
56478;DHT22;42382;53.210;5.772;2022-11-12T03:55:26;8.30;93.90
56478;DHT22;42382;53.210;5.772;2022-11-12T03:57:53;8.30;93.80
56478;DHT22;42382;53.210;5.772;2022-11-12T04:00:19;8.40;93.90
56478;DHT22;42382;53.210;5.772;2022-11-12T04:02:46;8.40;93.90
56478;DHT22;42382;53.210;5.772;2022-11-12T04:05:11;8.40;93.90
56478;DHT22;42382;53.210;5.772;2022-11-12T04:08:16;8.40;93.90
56478;DHT22;42382;53.210;5.772;2022-11-12T04:11:06;8.50;94.00
56478;DHT22;42382;53.210;5.772;2022-11-12T04:13:32;8.50;93.90
56478;DHT22;42382;53.210;5.772;2022-11-12T04:16:09;8.60;93.90
56478;DHT22;42382;53.210;5.772;2022-11-12T04:18:55;8.60;94.00
56478;DHT22;42382;53.210;5.772;2022-11-12T04:21:45;8.60;93.90
56478;DHT22;42382;53.210;5.772;2022-11-12T04:24:29;8.60;93.90
56478;DHT22;42382;53.210;5.772;2022-11-12T04:29:47;8.70;94.00
56478;DHT22;42382;53.210;5.772;2022-11-12T04:32:34;8.70;93.90
56478;DHT22;42382;53.210;5.772;2022-11-12T04:35:00;8.70;93.90
56478;DHT22;42382;53.210;5.772;2022-11-12T04:37:27;8.70;93.90
56478;DHT22;42382;53.210;5.772;2022-11-12T04:39:54;8.70;93.90
56478;DHT22;42382;53.210;5.772;2022-11-12T04:42:20;8.70;94.00
56478;DHT22;42382;53.210;5.772;2022-11-12T04:45:09;8.70;93.90
56478;DHT22;42382;53.210;5.772;2022-11-12T04:47:40;8.70;94.00
56478;DHT22;42382;53.210;5.772;2022-11-12T04:50:14;8.70;94.00
56478;DHT22;42382;53.210;5.772;2022-11-12T04:52:40;8.70;94.00
56478;DHT22;42382;53.210;5.772;2022-11-12T04:55:06;8.70;94.00
56478;DHT22;42382;53.210;5.772;2022-11-12T04:57:32;8.70;94.00
56478;DHT22;42382;53.210;5.772;2022-11-12T04:59:58;8.80;94.00
56478;DHT22;42382;53.210;5.772;2022-11-12T05:02:23;8.70;94.00
56478;DHT22;42382;53.210;5.772;2022-11-12T05:04:49;8.70;94.00
56478;DHT22;42382;53.210;5.772;2022-11-12T05:07:15;8.70;94.00
56478;DHT22;42382;53.210;5.772;2022-11-12T05:09:41;8.80;94.00
56478;DHT22;42382;53.210;5.772;2022-11-12T05:12:07;8.80;94.10
56478;DHT22;42382;53.210;5.772;2022-11-12T05:14:33;8.80;94.10
56478;DHT22;42382;53.210;5.772;2022-11-12T05:16:58;8.80;94.20
56478;DHT22;42382;53.210;5.772;2022-11-12T05:19:24;8.80;94.20
56478;DHT22;42382;53.210;5.772;2022-11-12T05:21:50;8.80;94.20
56478;DHT22;42382;53.210;5.772;2022-11-12T05:24:33;8.80;94.20
56478;DHT22;42382;53.210;5.772;2022-11-12T05:26:59;8.80;94.20
56478;DHT22;42382;53.210;5.772;2022-11-12T05:29:25;8.80;94.20
56478;DHT22;42382;53.210;5.772;2022-11-12T05:31:50;8.80;94.30
56478;DHT22;42382;53.210;5.772;2022-11-12T05:34:16;8.90;94.30
56478;DHT22;42382;53.210;5.772;2022-11-12T05:36:42;8.90;94.30
56478;DHT22;42382;53.210;5.772;2022-11-12T05:39:07;8.80;94.30
56478;DHT22;42382;53.210;5.772;2022-11-12T05:41:33;8.90;94.30
56478;DHT22;42382;53.210;5.772;2022-11-12T05:43:58;8.90;94.40
56478;DHT22;42382;53.210;5.772;2022-11-12T05:46:24;8.90;94.40
56478;DHT22;42382;53.210;5.772;2022-11-12T05:48:50;8.90;94.50
56478;DHT22;42382;53.210;5.772;2022-11-12T05:51:15;8.90;94.40
56478;DHT22;42382;53.210;5.772;2022-11-12T05:53:41;8.90;94.50
56478;DHT22;42382;53.210;5.772;2022-11-12T05:56:08;8.90;94.50
56478;DHT22;42382;53.210;5.772;2022-11-12T05:58:35;8.90;94.50
56478;DHT22;42382;53.210;5.772;2022-11-12T06:01:01;8.90;94.50
56478;DHT22;42382;53.210;5.772;2022-11-12T06:03:27;8.90;94.50
56478;DHT22;42382;53.210;5.772;2022-11-12T06:05:52;8.90;94.50
56478;DHT22;42382;53.210;5.772;2022-11-12T06:08:18;9.00;94.60
56478;DHT22;42382;53.210;5.772;2022-11-12T06:10:53;8.90;94.60
56478;DHT22;42382;53.210;5.772;2022-11-12T06:13:20;8.90;94.70
56478;DHT22;42382;53.210;5.772;2022-11-12T06:15:46;8.90;94.70
56478;DHT22;42382;53.210;5.772;2022-11-12T06:18:12;8.90;94.70
56478;DHT22;42382;53.210;5.772;2022-11-12T06:20:37;9.00;94.70
56478;DHT22;42382;53.210;5.772;2022-11-12T06:23:03;9.00;94.70
56478;DHT22;42382;53.210;5.772;2022-11-12T06:25:29;8.90;94.70
56478;DHT22;42382;53.210;5.772;2022-11-12T06:27:55;9.00;94.80
56478;DHT22;42382;53.210;5.772;2022-11-12T06:30:21;8.90;94.70
56478;DHT22;42382;53.210;5.772;2022-11-12T06:32:47;8.90;94.70
56478;DHT22;42382;53.210;5.772;2022-11-12T06:35:13;8.90;94.70
56478;DHT22;42382;53.210;5.772;2022-11-12T06:37:39;8.90;94.80
56478;DHT22;42382;53.210;5.772;2022-11-12T06:40:06;8.90;94.80
56478;DHT22;42382;53.210;5.772;2022-11-12T06:42:32;8.90;94.80
56478;DHT22;42382;53.210;5.772;2022-11-12T06:44:57;8.90;94.80
56478;DHT22;42382;53.210;5.772;2022-11-12T06:47:23;8.90;94.80
56478;DHT22;42382;53.210;5.772;2022-11-12T06:49:48;8.90;94.80
56478;DHT22;42382;53.210;5.772;2022-11-12T06:52:14;8.90;94.80
56478;DHT22;42382;53.210;5.772;2022-11-12T06:54:40;8.90;94.80
56478;DHT22;42382;53.210;5.772;2022-11-12T06:57:06;8.90;94.80
56478;DHT22;42382;53.210;5.772;2022-11-12T06:59:31;9.00;94.80
56478;DHT22;42382;53.210;5.772;2022-11-12T07:01:57;9.00;94.90
56478;DHT22;42382;53.210;5.772;2022-11-12T07:04:23;9.00;94.80
56478;DHT22;42382;53.210;5.772;2022-11-12T07:06:49;8.90;94.80
56478;DHT22;42382;53.210;5.772;2022-11-12T07:09:14;8.90;94.90
56478;DHT22;42382;53.210;5.772;2022-11-12T07:11:40;9.00;94.80
56478;DHT22;42382;53.210;5.772;2022-11-12T07:14:06;9.00;94.90
56478;DHT22;42382;53.210;5.772;2022-11-12T07:16:32;9.00;94.90
56478;DHT22;42382;53.210;5.772;2022-11-12T07:18:57;9.00;94.90
56478;DHT22;42382;53.210;5.772;2022-11-12T07:21:23;9.00;94.90
56478;DHT22;42382;53.210;5.772;2022-11-12T07:23:49;9.00;94.90
56478;DHT22;42382;53.210;5.772;2022-11-12T07:26:20;9.00;94.90
56478;DHT22;42382;53.210;5.772;2022-11-12T07:28:47;8.90;94.90
56478;DHT22;42382;53.210;5.772;2022-11-12T07:31:15;9.00;94.90
56478;DHT22;42382;53.210;5.772;2022-11-12T07:33:42;8.90;94.90
56478;DHT22;42382;53.210;5.772;2022-11-12T07:36:13;9.00;94.90
56478;DHT22;42382;53.210;5.772;2022-11-12T07:38:40;8.90;95.00
56478;DHT22;42382;53.210;5.772;2022-11-12T07:41:10;9.00;94.90
56478;DHT22;42382;53.210;5.772;2022-11-12T07:43:37;8.90;95.00
56478;DHT22;42382;53.210;5.772;2022-11-12T07:46:05;8.90;94.90
56478;DHT22;42382;53.210;5.772;2022-11-12T07:48:32;8.90;94.90
56478;DHT22;42382;53.210;5.772;2022-11-12T07:51:01;8.90;95.00
56478;DHT22;42382;53.210;5.772;2022-11-12T07:53:27;8.90;95.00
56478;DHT22;42382;53.210;5.772;2022-11-12T07:55:55;8.90;94.90
56478;DHT22;42382;53.210;5.772;2022-11-12T07:58:22;8.90;95.00
56478;DHT22;42382;53.210;5.772;2022-11-12T08:00:48;8.90;95.00
56478;DHT22;42382;53.210;5.772;2022-11-12T08:03:13;8.90;95.00
56478;DHT22;42382;53.210;5.772;2022-11-12T08:05:39;9.00;95.00
56478;DHT22;42382;53.210;5.772;2022-11-12T08:08:04;8.90;94.90
56478;DHT22;42382;53.210;5.772;2022-11-12T08:10:30;8.90;94.90
56478;DHT22;42382;53.210;5.772;2022-11-12T08:12:55;8.90;94.90
56478;DHT22;42382;53.210;5.772;2022-11-12T08:15:21;8.90;94.90
56478;DHT22;42382;53.210;5.772;2022-11-12T08:17:47;8.90;94.90
56478;DHT22;42382;53.210;5.772;2022-11-12T08:20:13;8.90;94.90
56478;DHT22;42382;53.210;5.772;2022-11-12T08:22:39;8.90;95.00
56478;DHT22;42382;53.210;5.772;2022-11-12T08:25:05;8.90;95.00
56478;DHT22;42382;53.210;5.772;2022-11-12T08:27:30;9.00;95.00
56478;DHT22;42382;53.210;5.772;2022-11-12T08:29:56;9.00;95.00
56478;DHT22;42382;53.210;5.772;2022-11-12T08:32:22;9.00;94.90
56478;DHT22;42382;53.210;5.772;2022-11-12T08:34:47;8.90;94.90
56478;DHT22;42382;53.210;5.772;2022-11-12T08:37:13;9.00;94.90
56478;DHT22;42382;53.210;5.772;2022-11-12T08:39:38;9.00;95.00
56478;DHT22;42382;53.210;5.772;2022-11-12T08:42:04;8.90;94.90
56478;DHT22;42382;53.210;5.772;2022-11-12T08:44:29;9.00;95.00
56478;DHT22;42382;53.210;5.772;2022-11-12T08:46:55;9.00;94.90
56478;DHT22;42382;53.210;5.772;2022-11-12T08:49:21;8.90;94.90
56478;DHT22;42382;53.210;5.772;2022-11-12T08:51:46;8.90;94.80
56478;DHT22;42382;53.210;5.772;2022-11-12T08:54:12;8.90;94.90
56478;DHT22;42382;53.210;5.772;2022-11-12T08:56:37;8.90;94.90
56478;DHT22;42382;53.210;5.772;2022-11-12T08:59:04;8.90;94.90
56478;DHT22;42382;53.210;5.772;2022-11-12T09:01:30;8.90;94.90
56478;DHT22;42382;53.210;5.772;2022-11-12T09:03:56;8.90;94.90
56478;DHT22;42382;53.210;5.772;2022-11-12T09:06:21;9.00;94.90
56478;DHT22;42382;53.210;5.772;2022-11-12T09:08:47;8.90;94.90
56478;DHT22;42382;53.210;5.772;2022-11-12T09:11:12;8.90;94.80
56478;DHT22;42382;53.210;5.772;2022-11-12T09:13:38;8.90;94.90
56478;DHT22;42382;53.210;5.772;2022-11-12T09:16:05;8.90;94.90
56478;DHT22;42382;53.210;5.772;2022-11-12T09:18:32;8.90;94.80
56478;DHT22;42382;53.210;5.772;2022-11-12T09:21:09;8.90;94.90
56478;DHT22;42382;53.210;5.772;2022-11-12T09:23:36;9.00;94.90
56478;DHT22;42382;53.210;5.772;2022-11-12T09:26:02;9.00;94.90
56478;DHT22;42382;53.210;5.772;2022-11-12T09:28:28;9.00;94.80
56478;DHT22;42382;53.210;5.772;2022-11-12T09:30:54;9.00;94.90
56478;DHT22;42382;53.210;5.772;2022-11-12T09:33:25;9.00;94.80
56478;DHT22;42382;53.210;5.772;2022-11-12T09:35:52;9.00;94.70
56478;DHT22;42382;53.210;5.772;2022-11-12T09:38:18;9.00;94.70
56478;DHT22;42382;53.210;5.772;2022-11-12T09:45:45;9.00;94.70
56478;DHT22;42382;53.210;5.772;2022-11-12T09:48:17;8.90;94.60
56478;DHT22;42382;53.210;5.772;2022-11-12T09:51:00;8.90;94.70
56478;DHT22;42382;53.210;5.772;2022-11-12T09:53:42;9.00;94.70
56478;DHT22;42382;53.210;5.772;2022-11-12T09:56:11;8.90;94.60
56478;DHT22;42382;53.210;5.772;2022-11-12T09:58:37;8.80;94.40
56478;DHT22;42382;53.210;5.772;2022-11-12T10:10:02;8.70;94.60
56478;DHT22;42382;53.210;5.772;2022-11-12T10:12:41;8.80;94.50
56478;DHT22;42382;53.210;5.772;2022-11-12T10:23:44;8.70;94.50
56478;DHT22;42382;53.210;5.772;2022-11-12T10:26:15;8.70;94.40
56478;DHT22;42382;53.210;5.772;2022-11-12T10:28:59;8.70;94.40
56478;DHT22;42382;53.210;5.772;2022-11-12T10:31:27;8.80;94.40
56478;DHT22;42382;53.210;5.772;2022-11-12T10:34:17;8.80;94.40
56478;DHT22;42382;53.210;5.772;2022-11-12T10:37:00;8.80;94.30
56478;DHT22;42382;53.210;5.772;2022-11-12T10:39:41;8.70;94.40
56478;DHT22;42382;53.210;5.772;2022-11-12T10:44:35;8.80;94.20
56478;DHT22;42382;53.210;5.772;2022-11-12T10:47:18;8.80;94.30
56478;DHT22;42382;53.210;5.772;2022-11-12T10:52:33;8.90;94.30
56478;DHT22;42382;53.210;5.772;2022-11-12T10:55:17;8.80;94.20
56478;DHT22;42382;53.210;5.772;2022-11-12T10:57:43;8.80;94.20
56478;DHT22;42382;53.210;5.772;2022-11-12T11:02:50;8.80;94.20
56478;DHT22;42382;53.210;5.772;2022-11-12T11:05:32;8.80;94.20
56478;DHT22;42382;53.210;5.772;2022-11-12T11:07:59;8.90;94.20
56478;DHT22;42382;53.210;5.772;2022-11-12T11:10:31;8.90;94.20
56478;DHT22;42382;53.210;5.772;2022-11-12T11:13:18;8.90;94.10
56478;DHT22;42382;53.210;5.772;2022-11-12T11:16:04;8.90;94.10
56478;DHT22;42382;53.210;5.772;2022-11-12T11:18:33;8.90;94.00
56478;DHT22;42382;53.210;5.772;2022-11-12T11:35:17;8.90;93.90
56478;DHT22;42382;53.210;5.772;2022-11-12T11:43:10;9.00;93.80
56478;DHT22;42382;53.210;5.772;2022-11-12T11:48:46;9.00;93.90
56478;DHT22;42382;53.210;5.772;2022-11-12T11:54:12;9.10;93.80
56478;DHT22;42382;53.210;5.772;2022-11-12T11:56:42;9.20;93.80
56478;DHT22;42382;53.210;5.772;2022-11-12T12:04:25;9.30;93.70
56478;DHT22;42382;53.210;5.772;2022-11-12T12:10:02;9.40;93.70
56478;DHT22;42382;53.210;5.772;2022-11-12T12:18:12;9.50;93.60
56478;DHT22;42382;53.210;5.772;2022-11-12T12:20:57;9.50;93.70
56478;DHT22;42382;53.210;5.772;2022-11-12T12:23:43;9.50;93.50
56478;DHT22;42382;53.210;5.772;2022-11-12T12:26:15;9.60;93.60
56478;DHT22;42382;53.210;5.772;2022-11-12T12:31:19;9.80;93.60
56478;DHT22;42382;53.210;5.772;2022-11-12T12:36:30;9.70;93.50
56478;DHT22;42382;53.210;5.772;2022-11-12T12:39:23;9.80;93.50
56478;DHT22;42382;53.210;5.772;2022-11-12T12:42:08;9.80;93.50
56478;DHT22;42382;53.210;5.772;2022-11-12T12:44:46;9.80;93.50
56478;DHT22;42382;53.210;5.772;2022-11-12T14:55:40;9.90;93.50
56478;DHT22;42382;53.210;5.772;2022-11-12T14:58:13;9.60;92.70
56478;DHT22;42382;53.210;5.772;2022-11-12T15:00:44;9.60;92.70
56478;DHT22;42382;53.210;5.772;2022-11-12T15:03:14;9.50;92.70
56478;DHT22;42382;53.210;5.772;2022-11-12T15:08:33;9.40;92.70
56478;DHT22;42382;53.210;5.772;2022-11-12T15:14:03;9.40;92.70
56478;DHT22;42382;53.210;5.772;2022-11-12T15:16:30;9.40;92.70
56478;DHT22;42382;53.210;5.772;2022-11-12T15:19:15;9.30;92.70
56478;DHT22;42382;53.210;5.772;2022-11-12T15:21:47;9.30;92.80
56478;DHT22;42382;53.210;5.772;2022-11-12T15:24:23;9.40;92.80
56478;DHT22;42382;53.210;5.772;2022-11-12T15:26:51;9.30;92.80
56478;DHT22;42382;53.210;5.772;2022-11-12T15:31:50;9.30;92.90
56478;DHT22;42382;53.210;5.772;2022-11-12T15:37:09;9.30;92.90
56478;DHT22;42382;53.210;5.772;2022-11-12T15:39:44;9.20;92.90
56478;DHT22;42382;53.210;5.772;2022-11-12T15:42:27;9.20;93.00
56478;DHT22;42382;53.210;5.772;2022-11-12T15:45:19;9.20;92.90
56478;DHT22;42382;53.210;5.772;2022-11-12T15:47:45;9.20;92.90
56478;DHT22;42382;53.210;5.772;2022-11-12T15:50:19;9.20;92.90
56478;DHT22;42382;53.210;5.772;2022-11-12T15:52:46;9.10;93.00
56478;DHT22;42382;53.210;5.772;2022-11-12T15:55:12;9.10;93.00
56478;DHT22;42382;53.210;5.772;2022-11-12T15:57:49;9.10;92.90
56478;DHT22;42382;53.210;5.772;2022-11-12T16:02:43;9.10;93.00
56478;DHT22;42382;53.210;5.772;2022-11-12T16:05:14;9.00;93.00
56478;DHT22;42382;53.210;5.772;2022-11-12T16:07:40;9.00;93.00
56478;DHT22;42382;53.210;5.772;2022-11-12T16:10:06;9.00;93.00
56478;DHT22;42382;53.210;5.772;2022-11-12T16:12:33;8.90;92.90
56478;DHT22;42382;53.210;5.772;2022-11-12T16:15:00;8.90;93.00
56478;DHT22;42382;53.210;5.772;2022-11-12T16:17:25;8.90;93.00
56478;DHT22;42382;53.210;5.772;2022-11-12T16:19:51;8.90;93.00
56478;DHT22;42382;53.210;5.772;2022-11-12T16:22:17;8.90;93.00
56478;DHT22;42382;53.210;5.772;2022-11-12T16:24:44;8.90;92.90
56478;DHT22;42382;53.210;5.772;2022-11-12T16:27:12;8.80;93.00
56478;DHT22;42382;53.210;5.772;2022-11-12T16:29:38;8.80;93.00
56478;DHT22;42382;53.210;5.772;2022-11-12T16:32:04;8.80;93.00
56478;DHT22;42382;53.210;5.772;2022-11-12T16:34:30;8.80;93.00
56478;DHT22;42382;53.210;5.772;2022-11-12T16:36:55;8.80;92.90
56478;DHT22;42382;53.210;5.772;2022-11-12T16:39:21;8.80;93.00
56478;DHT22;42382;53.210;5.772;2022-11-12T16:41:47;8.80;93.00
56478;DHT22;42382;53.210;5.772;2022-11-12T16:44:12;8.70;93.00
56478;DHT22;42382;53.210;5.772;2022-11-12T16:46:39;8.70;93.00
56478;DHT22;42382;53.210;5.772;2022-11-12T16:49:10;8.70;93.00
56478;DHT22;42382;53.210;5.772;2022-11-12T16:51:36;8.70;93.00
56478;DHT22;42382;53.210;5.772;2022-11-12T16:54:01;8.60;93.00
56478;DHT22;42382;53.210;5.772;2022-11-12T16:56:27;8.60;93.00
56478;DHT22;42382;53.210;5.772;2022-11-12T16:58:52;8.60;93.00
56478;DHT22;42382;53.210;5.772;2022-11-12T17:01:28;8.60;93.00
56478;DHT22;42382;53.210;5.772;2022-11-12T17:03:54;8.60;93.00
56478;DHT22;42382;53.210;5.772;2022-11-12T17:06:21;8.50;93.00
56478;DHT22;42382;53.210;5.772;2022-11-12T17:08:47;8.60;93.10
56478;DHT22;42382;53.210;5.772;2022-11-12T17:11:16;8.60;93.10
56478;DHT22;42382;53.210;5.772;2022-11-12T17:13:42;8.50;93.10
56478;DHT22;42382;53.210;5.772;2022-11-12T17:16:08;8.50;93.10
56478;DHT22;42382;53.210;5.772;2022-11-12T17:18:34;8.50;93.10
56478;DHT22;42382;53.210;5.772;2022-11-12T17:21:13;8.50;93.20
56478;DHT22;42382;53.210;5.772;2022-11-12T17:23:40;8.50;93.20
56478;DHT22;42382;53.210;5.772;2022-11-12T17:26:09;8.40;93.20
56478;DHT22;42382;53.210;5.772;2022-11-12T17:28:34;8.50;93.20
56478;DHT22;42382;53.210;5.772;2022-11-12T17:31:07;8.40;93.20
56478;DHT22;42382;53.210;5.772;2022-11-12T17:33:38;8.40;93.30
56478;DHT22;42382;53.210;5.772;2022-11-12T17:36:06;8.40;93.30
56478;DHT22;42382;53.210;5.772;2022-11-12T17:38:32;8.40;93.30
56478;DHT22;42382;53.210;5.772;2022-11-12T17:40:58;8.40;93.30
56478;DHT22;42382;53.210;5.772;2022-11-12T17:43:24;8.40;93.30
56478;DHT22;42382;53.210;5.772;2022-11-12T17:45:54;8.40;93.30
56478;DHT22;42382;53.210;5.772;2022-11-12T17:48:19;8.40;93.30
56478;DHT22;42382;53.210;5.772;2022-11-12T17:50:46;8.30;93.30
56478;DHT22;42382;53.210;5.772;2022-11-12T17:53:12;8.30;93.30
56478;DHT22;42382;53.210;5.772;2022-11-12T17:55:38;8.30;93.30
56478;DHT22;42382;53.210;5.772;2022-11-12T17:58:04;8.30;93.20
56478;DHT22;42382;53.210;5.772;2022-11-12T18:00:29;8.30;93.30
56478;DHT22;42382;53.210;5.772;2022-11-12T18:02:55;8.30;93.20
56478;DHT22;42382;53.210;5.772;2022-11-12T18:05:21;8.30;93.30
56478;DHT22;42382;53.210;5.772;2022-11-12T18:07:47;8.30;93.30
56478;DHT22;42382;53.210;5.772;2022-11-12T18:10:12;8.20;93.20
56478;DHT22;42382;53.210;5.772;2022-11-12T18:12:38;8.10;93.20
56478;DHT22;42382;53.210;5.772;2022-11-12T18:15:03;8.20;93.30
56478;DHT22;42382;53.210;5.772;2022-11-12T18:17:31;8.20;93.30
56478;DHT22;42382;53.210;5.772;2022-11-12T18:19:57;8.10;93.30
56478;DHT22;42382;53.210;5.772;2022-11-12T18:22:22;8.10;93.30
56478;DHT22;42382;53.210;5.772;2022-11-12T18:24:48;8.10;93.40
56478;DHT22;42382;53.210;5.772;2022-11-12T18:27:13;8.20;93.40
56478;DHT22;42382;53.210;5.772;2022-11-12T18:29:39;8.10;93.40
56478;DHT22;42382;53.210;5.772;2022-11-12T18:32:06;8.20;93.40
56478;DHT22;42382;53.210;5.772;2022-11-12T18:34:31;8.20;93.40
56478;DHT22;42382;53.210;5.772;2022-11-12T18:36:57;8.20;93.50
56478;DHT22;42382;53.210;5.772;2022-11-12T18:39:22;8.20;93.40
56478;DHT22;42382;53.210;5.772;2022-11-12T18:41:50;8.10;93.50
56478;DHT22;42382;53.210;5.772;2022-11-12T18:44:16;8.20;93.50
56478;DHT22;42382;53.210;5.772;2022-11-12T18:46:42;8.10;93.50
56478;DHT22;42382;53.210;5.772;2022-11-12T18:49:07;8.20;93.50
56478;DHT22;42382;53.210;5.772;2022-11-12T18:51:33;8.20;93.50
56478;DHT22;42382;53.210;5.772;2022-11-12T18:53:58;8.20;93.50
56478;DHT22;42382;53.210;5.772;2022-11-12T18:56:24;8.10;93.50
56478;DHT22;42382;53.210;5.772;2022-11-12T18:58:49;8.10;93.50
56478;DHT22;42382;53.210;5.772;2022-11-12T19:01:16;8.10;93.60
56478;DHT22;42382;53.210;5.772;2022-11-12T19:03:42;8.10;93.50
56478;DHT22;42382;53.210;5.772;2022-11-12T19:06:08;8.10;93.60
56478;DHT22;42382;53.210;5.772;2022-11-12T19:08:35;8.10;93.60
56478;DHT22;42382;53.210;5.772;2022-11-12T19:11:05;8.20;93.60
56478;DHT22;42382;53.210;5.772;2022-11-12T19:13:31;8.10;93.60
56478;DHT22;42382;53.210;5.772;2022-11-12T19:16:02;8.10;93.60
56478;DHT22;42382;53.210;5.772;2022-11-12T19:18:29;8.10;93.70
56478;DHT22;42382;53.210;5.772;2022-11-12T19:21:03;8.10;93.60
56478;DHT22;42382;53.210;5.772;2022-11-12T19:23:29;8.20;93.80
56478;DHT22;42382;53.210;5.772;2022-11-12T19:25:55;8.20;93.70
56478;DHT22;42382;53.210;5.772;2022-11-12T19:28:21;8.20;93.70
56478;DHT22;42382;53.210;5.772;2022-11-12T19:30:46;8.20;93.70